sensor_id;sensor_type;location;lat;lon;timestamp;P1;durP1;ratioP1;P2;durP2;ratioP2
21107;SDS011;10712;52.944;9.098;2023-12-20T00:01:33;9.70;;;2.10;;
21107;SDS011;10712;52.944;9.098;2023-12-20T00:03:59;5.13;;;1.40;;
21107;SDS011;10712;52.944;9.098;2023-12-20T00:06:24;7.32;;;2.08;;
21107;SDS011;10712;52.944;9.098;2023-12-20T00:08:50;5.90;;;1.73;;
21107;SDS011;10712;52.944;9.098;2023-12-20T00:11:16;8.48;;;1.33;;
21107;SDS011;10712;52.944;9.098;2023-12-20T00:13:42;7.75;;;1.80;;
21107;SDS011;10712;52.944;9.098;2023-12-20T00:16:07;14.20;;;2.80;;
21107;SDS011;10712;52.944;9.098;2023-12-20T00:18:34;7.50;;;1.98;;
21107;SDS011;10712;52.944;9.098;2023-12-20T00:21:00;12.43;;;1.75;;
21107;SDS011;10712;52.944;9.098;2023-12-20T00:23:26;11.55;;;2.20;;
21107;SDS011;10712;52.944;9.098;2023-12-20T00:25:51;10.63;;;2.15;;
21107;SDS011;10712;52.944;9.098;2023-12-20T00:28:17;7.93;;;1.45;;
21107;SDS011;10712;52.944;9.098;2023-12-20T00:30:43;5.07;;;1.13;;
21107;SDS011;10712;52.944;9.098;2023-12-20T00:33:09;9.15;;;2.55;;
21107;SDS011;10712;52.944;9.098;2023-12-20T00:35:35;9.43;;;1.77;;
21107;SDS011;10712;52.944;9.098;2023-12-20T00:38:00;5.28;;;1.30;;
21107;SDS011;10712;52.944;9.098;2023-12-20T00:40:26;8.02;;;1.35;;
21107;SDS011;10712;52.944;9.098;2023-12-20T00:42:52;9.40;;;1.67;;
21107;SDS011;10712;52.944;9.098;2023-12-20T00:45:17;11.18;;;1.98;;
21107;SDS011;10712;52.944;9.098;2023-12-20T00:47:43;10.27;;;2.13;;
21107;SDS011;10712;52.944;9.098;2023-12-20T00:50:10;12.32;;;1.58;;
21107;SDS011;10712;52.944;9.098;2023-12-20T00:52:36;11.30;;;1.80;;
21107;SDS011;10712;52.944;9.098;2023-12-20T00:55:02;11.82;;;1.90;;
21107;SDS011;10712;52.944;9.098;2023-12-20T00:57:29;8.77;;;1.83;;
21107;SDS011;10712;52.944;9.098;2023-12-20T00:59:56;10.90;;;1.70;;
21107;SDS011;10712;52.944;9.098;2023-12-20T01:02:22;12.05;;;2.13;;
21107;SDS011;10712;52.944;9.098;2023-12-20T01:04:47;7.32;;;1.23;;
21107;SDS011;10712;52.944;9.098;2023-12-20T01:07:13;9.43;;;1.85;;
21107;SDS011;10712;52.944;9.098;2023-12-20T01:09:39;12.90;;;1.58;;
21107;SDS011;10712;52.944;9.098;2023-12-20T01:12:05;8.48;;;1.70;;
21107;SDS011;10712;52.944;9.098;2023-12-20T01:14:31;6.97;;;1.65;;
21107;SDS011;10712;52.944;9.098;2023-12-20T01:16:56;5.22;;;1.65;;
21107;SDS011;10712;52.944;9.098;2023-12-20T01:19:22;11.13;;;1.58;;
21107;SDS011;10712;52.944;9.098;2023-12-20T01:21:49;13.45;;;1.85;;
21107;SDS011;10712;52.944;9.098;2023-12-20T01:24:15;6.88;;;1.33;;
21107;SDS011;10712;52.944;9.098;2023-12-20T01:26:41;6.20;;;1.45;;
21107;SDS011;10712;52.944;9.098;2023-12-20T01:29:07;11.07;;;2.30;;
21107;SDS011;10712;52.944;9.098;2023-12-20T01:31:33;7.07;;;1.73;;
21107;SDS011;10712;52.944;9.098;2023-12-20T01:33:58;11.95;;;1.63;;
21107;SDS011;10712;52.944;9.098;2023-12-20T01:36:24;7.93;;;1.80;;
21107;SDS011;10712;52.944;9.098;2023-12-20T01:38:50;5.10;;;1.60;;
21107;SDS011;10712;52.944;9.098;2023-12-20T01:41:16;8.85;;;1.85;;
21107;SDS011;10712;52.944;9.098;2023-12-20T01:43:42;7.65;;;1.48;;
21107;SDS011;10712;52.944;9.098;2023-12-20T01:46:07;8.90;;;1.60;;
21107;SDS011;10712;52.944;9.098;2023-12-20T01:48:34;5.40;;;1.80;;
21107;SDS011;10712;52.944;9.098;2023-12-20T01:51:00;15.93;;;2.10;;
21107;SDS011;10712;52.944;9.098;2023-12-20T01:53:28;7.88;;;1.88;;
21107;SDS011;10712;52.944;9.098;2023-12-20T01:55:55;4.53;;;1.40;;
21107;SDS011;10712;52.944;9.098;2023-12-20T01:58:23;5.82;;;1.45;;
21107;SDS011;10712;52.944;9.098;2023-12-20T02:00:51;6.38;;;1.80;;
21107;SDS011;10712;52.944;9.098;2023-12-20T02:03:17;6.25;;;1.50;;
21107;SDS011;10712;52.944;9.098;2023-12-20T02:05:44;6.78;;;1.88;;
21107;SDS011;10712;52.944;9.098;2023-12-20T02:08:11;11.45;;;1.88;;
21107;SDS011;10712;52.944;9.098;2023-12-20T02:10:36;7.72;;;1.50;;
21107;SDS011;10712;52.944;9.098;2023-12-20T02:13:03;10.63;;;1.70;;
21107;SDS011;10712;52.944;9.098;2023-12-20T02:15:29;9.40;;;2.17;;
21107;SDS011;10712;52.944;9.098;2023-12-20T02:17:55;9.32;;;2.40;;
21107;SDS011;10712;52.944;9.098;2023-12-20T02:20:21;12.65;;;1.63;;
21107;SDS011;10712;52.944;9.098;2023-12-20T02:22:47;8.23;;;1.60;;
21107;SDS011;10712;52.944;9.098;2023-12-20T02:25:13;9.20;;;1.98;;
21107;SDS011;10712;52.944;9.098;2023-12-20T02:27:39;14.52;;;1.88;;
21107;SDS011;10712;52.944;9.098;2023-12-20T02:30:05;8.32;;;2.05;;
21107;SDS011;10712;52.944;9.098;2023-12-20T02:32:32;12.25;;;2.50;;
21107;SDS011;10712;52.944;9.098;2023-12-20T02:34:58;10.68;;;1.90;;
21107;SDS011;10712;52.944;9.098;2023-12-20T02:37:23;7.35;;;1.58;;
21107;SDS011;10712;52.944;9.098;2023-12-20T02:39:49;6.25;;;1.30;;
21107;SDS011;10712;52.944;9.098;2023-12-20T02:42:15;6.93;;;1.70;;
21107;SDS011;10712;52.944;9.098;2023-12-20T02:44:41;5.95;;;1.85;;
21107;SDS011;10712;52.944;9.098;2023-12-20T02:47:07;4.80;;;1.48;;
21107;SDS011;10712;52.944;9.098;2023-12-20T02:49:32;9.15;;;1.42;;
21107;SDS011;10712;52.944;9.098;2023-12-20T02:51:58;13.57;;;1.90;;
21107;SDS011;10712;52.944;9.098;2023-12-20T02:54:24;5.03;;;1.50;;
21107;SDS011;10712;52.944;9.098;2023-12-20T02:56:49;15.93;;;2.33;;
21107;SDS011;10712;52.944;9.098;2023-12-20T02:59:15;14.38;;;2.95;;
21107;SDS011;10712;52.944;9.098;2023-12-20T03:01:42;5.47;;;1.75;;
21107;SDS011;10712;52.944;9.098;2023-12-20T03:04:09;10.15;;;2.03;;
21107;SDS011;10712;52.944;9.098;2023-12-20T03:06:36;8.82;;;2.28;;
21107;SDS011;10712;52.944;9.098;2023-12-20T03:09:01;15.75;;;2.67;;
21107;SDS011;10712;52.944;9.098;2023-12-20T03:11:27;5.55;;;1.70;;
21107;SDS011;10712;52.944;9.098;2023-12-20T03:13:54;9.68;;;2.53;;
21107;SDS011;10712;52.944;9.098;2023-12-20T03:16:20;12.07;;;2.22;;
21107;SDS011;10712;52.944;9.098;2023-12-20T03:18:46;7.50;;;1.90;;
21107;SDS011;10712;52.944;9.098;2023-12-20T03:21:12;7.70;;;1.77;;
21107;SDS011;10712;52.944;9.098;2023-12-20T03:23:38;7.15;;;2.17;;
21107;SDS011;10712;52.944;9.098;2023-12-20T03:26:06;15.15;;;2.28;;
21107;SDS011;10712;52.944;9.098;2023-12-20T03:28:32;14.48;;;2.20;;
21107;SDS011;10712;52.944;9.098;2023-12-20T03:30:59;13.48;;;2.58;;
21107;SDS011;10712;52.944;9.098;2023-12-20T03:33:25;9.40;;;2.00;;
21107;SDS011;10712;52.944;9.098;2023-12-20T03:35:51;15.23;;;2.40;;
21107;SDS011;10712;52.944;9.098;2023-12-20T03:38:17;8.98;;;2.10;;
21107;SDS011;10712;52.944;9.098;2023-12-20T03:40:43;10.70;;;1.90;;
21107;SDS011;10712;52.944;9.098;2023-12-20T03:43:09;9.32;;;2.17;;
21107;SDS011;10712;52.944;9.098;2023-12-20T03:45:35;9.45;;;1.95;;
21107;SDS011;10712;52.944;9.098;2023-12-20T03:48:00;9.98;;;2.40;;
21107;SDS011;10712;52.944;9.098;2023-12-20T03:50:26;8.02;;;2.08;;
21107;SDS011;10712;52.944;9.098;2023-12-20T03:52:52;7.10;;;1.67;;
21107;SDS011;10712;52.944;9.098;2023-12-20T03:55:18;6.28;;;2.00;;
21107;SDS011;10712;52.944;9.098;2023-12-20T03:57:44;7.45;;;2.20;;
21107;SDS011;10712;52.944;9.098;2023-12-20T04:00:10;14.63;;;2.20;;
21107;SDS011;10712;52.944;9.098;2023-12-20T04:02:40;15.77;;;2.80;;
21107;SDS011;10712;52.944;9.098;2023-12-20T04:05:07;7.10;;;2.15;;
21107;SDS011;10712;52.944;9.098;2023-12-20T04:07:34;15.63;;;2.15;;
21107;SDS011;10712;52.944;9.098;2023-12-20T04:10:02;14.70;;;2.92;;
21107;SDS011;10712;52.944;9.098;2023-12-20T04:12:32;12.82;;;2.53;;
21107;SDS011;10712;52.944;9.098;2023-12-20T04:14:58;15.10;;;2.72;;
21107;SDS011;10712;52.944;9.098;2023-12-20T04:17:24;9.40;;;3.13;;
21107;SDS011;10712;52.944;9.098;2023-12-20T04:19:50;16.35;;;3.88;;
21107;SDS011;10712;52.944;9.098;2023-12-20T04:22:17;9.95;;;3.08;;
21107;SDS011;10712;52.944;9.098;2023-12-20T04:24:44;11.10;;;2.67;;
21107;SDS011;10712;52.944;9.098;2023-12-20T04:27:10;12.20;;;2.88;;
21107;SDS011;10712;52.944;9.098;2023-12-20T04:29:36;14.30;;;2.65;;
21107;SDS011;10712;52.944;9.098;2023-12-20T04:32:02;7.43;;;2.47;;
21107;SDS011;10712;52.944;9.098;2023-12-20T04:34:28;13.10;;;3.50;;
21107;SDS011;10712;52.944;9.098;2023-12-20T04:36:54;16.50;;;3.70;;
21107;SDS011;10712;52.944;9.098;2023-12-20T04:39:20;16.92;;;3.72;;
21107;SDS011;10712;52.944;9.098;2023-12-20T04:41:45;11.10;;;2.95;;
21107;SDS011;10712;52.944;9.098;2023-12-20T04:44:13;11.85;;;3.15;;
21107;SDS011;10712;52.944;9.098;2023-12-20T04:46:39;7.20;;;2.80;;
21107;SDS011;10712;52.944;9.098;2023-12-20T04:49:05;16.58;;;3.28;;
21107;SDS011;10712;52.944;9.098;2023-12-20T04:51:34;14.25;;;3.10;;
21107;SDS011;10712;52.944;9.098;2023-12-20T04:54:00;9.70;;;3.20;;
21107;SDS011;10712;52.944;9.098;2023-12-20T04:56:27;18.70;;;2.92;;
21107;SDS011;10712;52.944;9.098;2023-12-20T04:58:53;24.02;;;4.03;;
21107;SDS011;10712;52.944;9.098;2023-12-20T05:01:18;9.15;;;3.10;;
21107;SDS011;10712;52.944;9.098;2023-12-20T05:03:44;16.20;;;2.97;;
21107;SDS011;10712;52.944;9.098;2023-12-20T05:06:10;14.25;;;2.88;;
21107;SDS011;10712;52.944;9.098;2023-12-20T05:08:36;12.07;;;3.22;;
21107;SDS011;10712;52.944;9.098;2023-12-20T05:11:02;15.48;;;3.22;;
21107;SDS011;10712;52.944;9.098;2023-12-20T05:13:28;14.57;;;3.80;;
21107;SDS011;10712;52.944;9.098;2023-12-20T05:15:54;13.63;;;3.08;;
21107;SDS011;10712;52.944;9.098;2023-12-20T05:18:20;16.50;;;3.53;;
21107;SDS011;10712;52.944;9.098;2023-12-20T05:20:49;14.02;;;3.33;;
21107;SDS011;10712;52.944;9.098;2023-12-20T05:23:16;14.98;;;3.33;;
21107;SDS011;10712;52.944;9.098;2023-12-20T05:25:42;12.57;;;2.63;;
21107;SDS011;10712;52.944;9.098;2023-12-20T05:28:08;10.40;;;2.63;;
21107;SDS011;10712;52.944;9.098;2023-12-20T05:30:34;10.45;;;2.92;;
21107;SDS011;10712;52.944;9.098;2023-12-20T05:33:00;13.93;;;3.15;;
21107;SDS011;10712;52.944;9.098;2023-12-20T05:35:26;13.10;;;3.72;;
21107;SDS011;10712;52.944;9.098;2023-12-20T05:37:51;20.88;;;3.65;;
21107;SDS011;10712;52.944;9.098;2023-12-20T05:40:17;18.15;;;3.20;;
21107;SDS011;10712;52.944;9.098;2023-12-20T05:42:43;15.88;;;2.92;;
21107;SDS011;10712;52.944;9.098;2023-12-20T05:45:09;12.50;;;2.75;;
21107;SDS011;10712;52.944;9.098;2023-12-20T05:47:35;21.13;;;3.40;;
21107;SDS011;10712;52.944;9.098;2023-12-20T05:50:01;19.02;;;3.50;;
21107;SDS011;10712;52.944;9.098;2023-12-20T05:52:27;20.20;;;4.05;;
21107;SDS011;10712;52.944;9.098;2023-12-20T05:54:53;15.40;;;3.58;;
21107;SDS011;10712;52.944;9.098;2023-12-20T05:57:19;9.48;;;3.13;;
21107;SDS011;10712;52.944;9.098;2023-12-20T05:59:45;16.45;;;3.80;;
21107;SDS011;10712;52.944;9.098;2023-12-20T06:02:11;14.93;;;2.97;;
21107;SDS011;10712;52.944;9.098;2023-12-20T06:04:36;14.70;;;2.83;;
21107;SDS011;10712;52.944;9.098;2023-12-20T06:07:02;14.60;;;3.72;;
21107;SDS011;10712;52.944;9.098;2023-12-20T06:09:28;14.80;;;3.07;;
21107;SDS011;10712;52.944;9.098;2023-12-20T06:11:54;14.13;;;3.00;;
21107;SDS011;10712;52.944;9.098;2023-12-20T06:14:20;20.67;;;3.53;;
21107;SDS011;10712;52.944;9.098;2023-12-20T06:16:46;13.30;;;3.25;;
21107;SDS011;10712;52.944;9.098;2023-12-20T06:19:12;15.95;;;3.22;;
21107;SDS011;10712;52.944;9.098;2023-12-20T06:21:38;15.45;;;3.08;;
21107;SDS011;10712;52.944;9.098;2023-12-20T06:24:04;10.95;;;2.70;;
21107;SDS011;10712;52.944;9.098;2023-12-20T06:26:30;11.13;;;2.95;;
21107;SDS011;10712;52.944;9.098;2023-12-20T06:28:56;20.40;;;3.53;;
21107;SDS011;10712;52.944;9.098;2023-12-20T06:31:22;17.17;;;3.88;;
21107;SDS011;10712;52.944;9.098;2023-12-20T06:33:47;23.88;;;4.05;;
21107;SDS011;10712;52.944;9.098;2023-12-20T06:36:22;14.98;;;3.38;;
21107;SDS011;10712;52.944;9.098;2023-12-20T06:38:49;19.38;;;3.80;;
21107;SDS011;10712;52.944;9.098;2023-12-20T06:41:15;16.45;;;3.42;;
21107;SDS011;10712;52.944;9.098;2023-12-20T06:43:41;14.10;;;2.88;;
21107;SDS011;10712;52.944;9.098;2023-12-20T06:46:07;17.08;;;4.18;;
21107;SDS011;10712;52.944;9.098;2023-12-20T06:48:34;19.02;;;3.47;;
21107;SDS011;10712;52.944;9.098;2023-12-20T06:51:00;20.23;;;4.50;;
21107;SDS011;10712;52.944;9.098;2023-12-20T06:53:29;19.08;;;4.25;;
21107;SDS011;10712;52.944;9.098;2023-12-20T06:55:55;20.52;;;4.72;;
21107;SDS011;10712;52.944;9.098;2023-12-20T06:58:22;14.65;;;4.00;;
21107;SDS011;10712;52.944;9.098;2023-12-20T07:00:48;14.10;;;3.25;;
21107;SDS011;10712;52.944;9.098;2023-12-20T07:03:15;17.70;;;4.25;;
21107;SDS011;10712;52.944;9.098;2023-12-20T07:05:41;25.73;;;4.50;;
21107;SDS011;10712;52.944;9.098;2023-12-20T07:08:07;22.55;;;5.32;;
21107;SDS011;10712;52.944;9.098;2023-12-20T07:10:33;17.90;;;4.03;;
21107;SDS011;10712;52.944;9.098;2023-12-20T07:12:58;14.98;;;4.07;;
21107;SDS011;10712;52.944;9.098;2023-12-20T07:15:24;21.27;;;4.57;;
21107;SDS011;10712;52.944;9.098;2023-12-20T07:17:52;18.65;;;4.30;;
21107;SDS011;10712;52.944;9.098;2023-12-20T07:20:18;21.10;;;4.85;;
21107;SDS011;10712;52.944;9.098;2023-12-20T07:22:43;20.88;;;4.93;;
21107;SDS011;10712;52.944;9.098;2023-12-20T07:25:10;19.75;;;4.28;;
21107;SDS011;10712;52.944;9.098;2023-12-20T07:27:35;23.02;;;4.22;;
21107;SDS011;10712;52.944;9.098;2023-12-20T07:30:01;17.95;;;4.28;;
21107;SDS011;10712;52.944;9.098;2023-12-20T07:32:27;19.55;;;4.60;;
21107;SDS011;10712;52.944;9.098;2023-12-20T07:34:53;18.60;;;5.15;;
21107;SDS011;10712;52.944;9.098;2023-12-20T07:37:19;21.25;;;4.82;;
21107;SDS011;10712;52.944;9.098;2023-12-20T07:39:46;26.50;;;6.80;;
21107;SDS011;10712;52.944;9.098;2023-12-20T07:42:11;29.73;;;9.25;;
21107;SDS011;10712;52.944;9.098;2023-12-20T07:44:37;29.40;;;5.13;;
21107;SDS011;10712;52.944;9.098;2023-12-20T07:47:03;15.00;;;4.25;;
21107;SDS011;10712;52.944;9.098;2023-12-20T07:49:32;20.08;;;4.85;;
21107;SDS011;10712;52.944;9.098;2023-12-20T07:51:58;32.05;;;5.35;;
21107;SDS011;10712;52.944;9.098;2023-12-20T07:54:24;20.50;;;4.63;;
21107;SDS011;10712;52.944;9.098;2023-12-20T07:56:50;20.48;;;5.43;;
21107;SDS011;10712;52.944;9.098;2023-12-20T07:59:15;18.90;;;3.95;;
21107;SDS011;10712;52.944;9.098;2023-12-20T08:01:41;17.15;;;5.40;;
21107;SDS011;10712;52.944;9.098;2023-12-20T08:04:07;13.80;;;3.83;;
21107;SDS011;10712;52.944;9.098;2023-12-20T08:06:33;22.15;;;4.32;;
21107;SDS011;10712;52.944;9.098;2023-12-20T08:08:59;10.85;;;3.45;;
21107;SDS011;10712;52.944;9.098;2023-12-20T08:11:25;15.18;;;3.42;;
21107;SDS011;10712;52.944;9.098;2023-12-20T08:13:51;17.08;;;4.03;;
21107;SDS011;10712;52.944;9.098;2023-12-20T08:16:16;24.70;;;4.07;;
21107;SDS011;10712;52.944;9.098;2023-12-20T08:18:43;18.65;;;4.30;;
21107;SDS011;10712;52.944;9.098;2023-12-20T08:21:09;19.92;;;3.90;;
21107;SDS011;10712;52.944;9.098;2023-12-20T08:23:36;16.38;;;3.85;;
21107;SDS011;10712;52.944;9.098;2023-12-20T08:26:05;26.77;;;5.10;;
21107;SDS011;10712;52.944;9.098;2023-12-20T08:28:34;14.02;;;4.40;;
21107;SDS011;10712;52.944;9.098;2023-12-20T08:31:01;38.05;;;16.10;;
21107;SDS011;10712;52.944;9.098;2023-12-20T08:33:27;22.17;;;4.53;;
21107;SDS011;10712;52.944;9.098;2023-12-20T08:35:53;15.80;;;4.22;;
21107;SDS011;10712;52.944;9.098;2023-12-20T08:38:19;16.50;;;4.15;;
21107;SDS011;10712;52.944;9.098;2023-12-20T08:40:45;22.25;;;3.72;;
21107;SDS011;10712;52.944;9.098;2023-12-20T08:43:11;19.77;;;3.70;;
21107;SDS011;10712;52.944;9.098;2023-12-20T08:45:37;23.52;;;4.40;;
21107;SDS011;10712;52.944;9.098;2023-12-20T08:48:04;20.00;;;6.85;;
21107;SDS011;10712;52.944;9.098;2023-12-20T08:50:30;18.02;;;4.20;;
21107;SDS011;10712;52.944;9.098;2023-12-20T08:52:56;22.88;;;4.93;;
21107;SDS011;10712;52.944;9.098;2023-12-20T08:55:22;18.80;;;4.88;;
21107;SDS011;10712;52.944;9.098;2023-12-20T08:57:47;25.20;;;5.40;;
21107;SDS011;10712;52.944;9.098;2023-12-20T09:00:14;12.68;;;3.80;;
21107;SDS011;10712;52.944;9.098;2023-12-20T09:02:41;15.90;;;3.83;;
21107;SDS011;10712;52.944;9.098;2023-12-20T09:05:06;15.43;;;4.05;;
21107;SDS011;10712;52.944;9.098;2023-12-20T09:07:32;19.08;;;4.47;;
21107;SDS011;10712;52.944;9.098;2023-12-20T09:09:58;23.23;;;5.13;;
21107;SDS011;10712;52.944;9.098;2023-12-20T09:12:24;14.25;;;3.92;;
21107;SDS011;10712;52.944;9.098;2023-12-20T09:14:51;21.77;;;3.28;;
21107;SDS011;10712;52.944;9.098;2023-12-20T09:17:17;14.65;;;3.05;;
21107;SDS011;10712;52.944;9.098;2023-12-20T09:19:44;21.17;;;4.32;;
21107;SDS011;10712;52.944;9.098;2023-12-20T09:22:10;20.48;;;4.53;;
21107;SDS011;10712;52.944;9.098;2023-12-20T09:24:37;15.98;;;3.38;;
21107;SDS011;10712;52.944;9.098;2023-12-20T09:27:03;13.30;;;4.47;;
21107;SDS011;10712;52.944;9.098;2023-12-20T09:29:30;17.38;;;4.10;;
21107;SDS011;10712;52.944;9.098;2023-12-20T09:31:56;15.93;;;4.43;;
21107;SDS011;10712;52.944;9.098;2023-12-20T09:34:23;13.50;;;3.83;;
21107;SDS011;10712;52.944;9.098;2023-12-20T09:36:49;12.73;;;3.53;;
21107;SDS011;10712;52.944;9.098;2023-12-20T09:39:18;23.67;;;4.18;;
21107;SDS011;10712;52.944;9.098;2023-12-20T09:41:49;19.60;;;4.15;;
21107;SDS011;10712;52.944;9.098;2023-12-20T09:44:26;15.10;;;4.40;;
21107;SDS011;10712;52.944;9.098;2023-12-20T09:46:52;15.27;;;4.40;;
21107;SDS011;10712;52.944;9.098;2023-12-20T09:49:20;12.73;;;3.55;;
21107;SDS011;10712;52.944;9.098;2023-12-20T09:51:47;22.00;;;3.53;;
21107;SDS011;10712;52.944;9.098;2023-12-20T09:54:16;19.02;;;3.40;;
21107;SDS011;10712;52.944;9.098;2023-12-20T09:56:43;12.32;;;3.45;;
21107;SDS011;10712;52.944;9.098;2023-12-20T09:59:10;9.27;;;2.88;;
21107;SDS011;10712;52.944;9.098;2023-12-20T10:01:36;14.85;;;3.85;;
21107;SDS011;10712;52.944;9.098;2023-12-20T10:04:05;10.27;;;2.50;;
21107;SDS011;10712;52.944;9.098;2023-12-20T10:06:36;12.43;;;3.28;;
21107;SDS011;10712;52.944;9.098;2023-12-20T10:09:09;12.82;;;2.63;;
21107;SDS011;10712;52.944;9.098;2023-12-20T10:11:38;11.52;;;2.80;;
21107;SDS011;10712;52.944;9.098;2023-12-20T10:14:05;10.60;;;3.25;;
21107;SDS011;10712;52.944;9.098;2023-12-20T10:16:32;11.20;;;2.92;;
21107;SDS011;10712;52.944;9.098;2023-12-20T10:18:59;11.25;;;2.80;;
21107;SDS011;10712;52.944;9.098;2023-12-20T10:21:29;3.83;;;0.90;;
21107;SDS011;10712;52.944;9.098;2023-12-20T10:23:56;5.00;;;1.10;;
21107;SDS011;10712;52.944;9.098;2023-12-20T10:26:23;5.38;;;3.05;;
21107;SDS011;10712;52.944;9.098;2023-12-20T10:28:54;4.63;;;2.50;;
21107;SDS011;10712;52.944;9.098;2023-12-20T10:31:28;2.78;;;0.82;;
21107;SDS011;10712;52.944;9.098;2023-12-20T10:34:00;3.22;;;1.50;;
21107;SDS011;10712;52.944;9.098;2023-12-20T10:36:28;4.25;;;1.20;;
21107;SDS011;10712;52.944;9.098;2023-12-20T10:38:57;2.08;;;0.65;;
21107;SDS011;10712;52.944;9.098;2023-12-20T10:41:27;0.88;;;0.63;;
21107;SDS011;10712;52.944;9.098;2023-12-20T10:43:59;2.97;;;0.70;;
21107;SDS011;10712;52.944;9.098;2023-12-20T10:48:55;2.80;;;0.73;;
21107;SDS011;10712;52.944;9.098;2023-12-20T10:51:23;1.80;;;0.55;;
21107;SDS011;10712;52.944;9.098;2023-12-20T10:53:55;2.35;;;0.60;;
21107;SDS011;10712;52.944;9.098;2023-12-20T10:56:21;2.85;;;0.55;;
21107;SDS011;10712;52.944;9.098;2023-12-20T10:58:48;3.55;;;0.70;;
21107;SDS011;10712;52.944;9.098;2023-12-20T11:01:16;3.38;;;0.47;;
21107;SDS011;10712;52.944;9.098;2023-12-20T11:03:52;5.40;;;0.85;;
21107;SDS011;10712;52.944;9.098;2023-12-20T11:14:50;5.78;;;0.73;;
21107;SDS011;10712;52.944;9.098;2023-12-20T11:17:28;4.20;;;0.80;;
21107;SDS011;10712;52.944;9.098;2023-12-20T11:22:22;3.13;;;0.80;;
21107;SDS011;10712;52.944;9.098;2023-12-20T11:24:51;4.85;;;0.70;;
21107;SDS011;10712;52.944;9.098;2023-12-20T11:27:19;2.00;;;0.68;;
21107;SDS011;10712;52.944;9.098;2023-12-20T11:29:51;6.13;;;1.30;;
21107;SDS011;10712;52.944;9.098;2023-12-20T11:34:54;8.60;;;1.80;;
21107;SDS011;10712;52.944;9.098;2023-12-20T11:37:58;6.38;;;1.63;;
21107;SDS011;10712;52.944;9.098;2023-12-20T11:40:17;9.43;;;1.27;;
21107;SDS011;10712;52.944;9.098;2023-12-20T11:42:45;6.47;;;1.17;;
21107;SDS011;10712;52.944;9.098;2023-12-20T11:45:14;9.68;;;1.77;;
21107;SDS011;10712;52.944;9.098;2023-12-20T11:47:49;3.58;;;1.20;;
21107;SDS011;10712;52.944;9.098;2023-12-20T11:50:16;16.33;;;2.10;;
21107;SDS011;10712;52.944;9.098;2023-12-20T11:52:43;7.47;;;2.00;;
21107;SDS011;10712;52.944;9.098;2023-12-20T11:55:09;6.07;;;1.52;;
21107;SDS011;10712;52.944;9.098;2023-12-20T11:57:35;12.48;;;1.35;;
21107;SDS011;10712;52.944;9.098;2023-12-20T12:00:02;6.20;;;1.30;;
21107;SDS011;10712;52.944;9.098;2023-12-20T12:02:37;12.18;;;1.27;;
21107;SDS011;10712;52.944;9.098;2023-12-20T12:05:03;7.70;;;1.55;;
21107;SDS011;10712;52.944;9.098;2023-12-20T12:07:31;10.07;;;1.13;;
21107;SDS011;10712;52.944;9.098;2023-12-20T12:09:57;7.78;;;1.60;;
21107;SDS011;10712;52.944;9.098;2023-12-20T12:12:23;9.75;;;1.50;;
21107;SDS011;10712;52.944;9.098;2023-12-20T12:14:52;10.23;;;1.88;;
21107;SDS011;10712;52.944;9.098;2023-12-20T12:17:19;3.15;;;1.00;;
21107;SDS011;10712;52.944;9.098;2023-12-20T12:19:45;6.47;;;1.80;;
21107;SDS011;10712;52.944;9.098;2023-12-20T12:22:12;9.00;;;1.83;;
21107;SDS011;10712;52.944;9.098;2023-12-20T12:24:41;8.27;;;1.50;;
21107;SDS011;10712;52.944;9.098;2023-12-20T12:27:09;10.38;;;1.90;;
21107;SDS011;10712;52.944;9.098;2023-12-20T12:29:36;12.15;;;1.45;;
21107;SDS011;10712;52.944;9.098;2023-12-20T12:32:06;5.97;;;1.95;;
21107;SDS011;10712;52.944;9.098;2023-12-20T12:34:33;8.55;;;1.40;;
21107;SDS011;10712;52.944;9.098;2023-12-20T12:37:02;8.55;;;2.17;;
21107;SDS011;10712;52.944;9.098;2023-12-20T12:39:29;9.50;;;1.95;;
21107;SDS011;10712;52.944;9.098;2023-12-20T12:41:55;9.45;;;1.30;;
21107;SDS011;10712;52.944;9.098;2023-12-20T12:44:22;9.30;;;1.75;;
21107;SDS011;10712;52.944;9.098;2023-12-20T12:46:51;10.82;;;1.95;;
21107;SDS011;10712;52.944;9.098;2023-12-20T12:49:21;9.73;;;1.42;;
21107;SDS011;10712;52.944;9.098;2023-12-20T12:51:47;8.50;;;1.98;;
21107;SDS011;10712;52.944;9.098;2023-12-20T12:54:13;8.15;;;1.73;;
21107;SDS011;10712;52.944;9.098;2023-12-20T12:56:41;12.52;;;2.25;;
21107;SDS011;10712;52.944;9.098;2023-12-20T12:59:08;16.45;;;4.85;;
21107;SDS011;10712;52.944;9.098;2023-12-20T13:01:34;18.40;;;5.43;;
21107;SDS011;10712;52.944;9.098;2023-12-20T13:04:00;14.07;;;2.63;;
21107;SDS011;10712;52.944;9.098;2023-12-20T13:06:28;11.52;;;2.90;;
21107;SDS011;10712;52.944;9.098;2023-12-20T13:08:54;9.13;;;2.20;;
21107;SDS011;10712;52.944;9.098;2023-12-20T13:11:20;32.72;;;14.63;;
21107;SDS011;10712;52.944;9.098;2023-12-20T13:13:46;22.83;;;5.25;;
21107;SDS011;10712;52.944;9.098;2023-12-20T13:16:12;9.20;;;3.67;;
21107;SDS011;10712;52.944;9.098;2023-12-20T13:18:38;8.02;;;2.15;;
21107;SDS011;10712;52.944;9.098;2023-12-20T13:21:07;7.45;;;2.33;;
21107;SDS011;10712;52.944;9.098;2023-12-20T13:23:34;9.95;;;2.22;;
21107;SDS011;10712;52.944;9.098;2023-12-20T13:26:00;12.00;;;2.45;;
21107;SDS011;10712;52.944;9.098;2023-12-20T13:28:26;10.32;;;1.67;;
21107;SDS011;10712;52.944;9.098;2023-12-20T13:30:52;9.82;;;1.85;;
21107;SDS011;10712;52.944;9.098;2023-12-20T13:33:17;9.85;;;1.10;;
21107;SDS011;10712;52.944;9.098;2023-12-20T13:35:43;9.35;;;1.77;;
21107;SDS011;10712;52.944;9.098;2023-12-20T13:38:09;13.55;;;2.00;;
21107;SDS011;10712;52.944;9.098;2023-12-20T13:40:35;6.70;;;1.83;;
21107;SDS011;10712;52.944;9.098;2023-12-20T13:43:00;13.85;;;1.95;;
21107;SDS011;10712;52.944;9.098;2023-12-20T13:45:28;8.15;;;1.85;;
21107;SDS011;10712;52.944;9.098;2023-12-20T13:47:53;9.85;;;1.90;;
21107;SDS011;10712;52.944;9.098;2023-12-20T13:50:19;8.35;;;1.38;;
21107;SDS011;10712;52.944;9.098;2023-12-20T13:52:45;11.02;;;2.05;;
21107;SDS011;10712;52.944;9.098;2023-12-20T13:55:11;7.38;;;1.23;;
21107;SDS011;10712;52.944;9.098;2023-12-20T13:57:37;8.25;;;2.15;;
21107;SDS011;10712;52.944;9.098;2023-12-20T14:00:03;11.85;;;2.10;;
21107;SDS011;10712;52.944;9.098;2023-12-20T14:02:32;9.93;;;2.08;;
21107;SDS011;10712;52.944;9.098;2023-12-20T14:04:58;13.95;;;2.50;;
21107;SDS011;10712;52.944;9.098;2023-12-20T14:07:23;12.88;;;1.60;;
21107;SDS011;10712;52.944;9.098;2023-12-20T14:09:49;12.68;;;2.55;;
21107;SDS011;10712;52.944;9.098;2023-12-20T14:12:15;9.75;;;1.73;;
21107;SDS011;10712;52.944;9.098;2023-12-20T14:14:41;10.25;;;2.17;;
21107;SDS011;10712;52.944;9.098;2023-12-20T14:17:07;8.63;;;1.60;;
21107;SDS011;10712;52.944;9.098;2023-12-20T14:19:32;13.05;;;2.05;;
21107;SDS011;10712;52.944;9.098;2023-12-20T14:21:58;11.18;;;2.20;;
21107;SDS011;10712;52.944;9.098;2023-12-20T14:24:28;11.68;;;2.58;;
21107;SDS011;10712;52.944;9.098;2023-12-20T14:26:54;14.18;;;2.08;;
21107;SDS011;10712;52.944;9.098;2023-12-20T14:29:20;7.93;;;2.13;;
21107;SDS011;10712;52.944;9.098;2023-12-20T14:31:46;19.33;;;2.88;;
21107;SDS011;10712;52.944;9.098;2023-12-20T14:34:12;10.90;;;2.95;;
21107;SDS011;10712;52.944;9.098;2023-12-20T14:36:38;12.85;;;3.10;;
21107;SDS011;10712;52.944;9.098;2023-12-20T14:39:04;6.03;;;1.90;;
21107;SDS011;10712;52.944;9.098;2023-12-20T14:41:32;9.30;;;1.92;;
21107;SDS011;10712;52.944;9.098;2023-12-20T14:43:58;15.05;;;2.72;;
21107;SDS011;10712;52.944;9.098;2023-12-20T14:46:24;10.30;;;1.77;;
21107;SDS011;10712;52.944;9.098;2023-12-20T14:48:51;11.05;;;1.75;;
21107;SDS011;10712;52.944;9.098;2023-12-20T14:51:16;10.43;;;2.42;;
21107;SDS011;10712;52.944;9.098;2023-12-20T14:53:42;9.35;;;1.85;;